sensor_id;sensor_type;location;lat;lon;timestamp;temperature;humidity
4245;DHT22;2136;48.502;9.194;2022-09-03T00:00:07;20.80;52.90
4245;DHT22;2136;48.502;9.194;2022-09-03T00:02:39;20.80;53.10
4245;DHT22;2136;48.502;9.194;2022-09-03T00:05:13;20.80;53.50
4245;DHT22;2136;48.502;9.194;2022-09-03T00:07:48;20.70;54.10
4245;DHT22;2136;48.502;9.194;2022-09-03T00:10:23;20.70;53.80
4245;DHT22;2136;48.502;9.194;2022-09-03T00:12:53;20.70;53.50
4245;DHT22;2136;48.502;9.194;2022-09-03T00:15:23;20.60;53.70
4245;DHT22;2136;48.502;9.194;2022-09-03T00:17:53;20.60;53.40
4245;DHT22;2136;48.502;9.194;2022-09-03T00:20:25;20.60;53.00
4245;DHT22;2136;48.502;9.194;2022-09-03T00:22:56;20.60;53.70
4245;DHT22;2136;48.502;9.194;2022-09-03T00:25:32;20.60;53.80
4245;DHT22;2136;48.502;9.194;2022-09-03T00:28:02;20.50;53.20
4245;DHT22;2136;48.502;9.194;2022-09-03T00:30:32;20.50;53.70
4245;DHT22;2136;48.502;9.194;2022-09-03T00:33:04;20.50;54.00
4245;DHT22;2136;48.502;9.194;2022-09-03T00:35:40;20.50;54.70
4245;DHT22;2136;48.502;9.194;2022-09-03T00:38:08;20.50;55.30
4245;DHT22;2136;48.502;9.194;2022-09-03T00:40:49;20.50;55.10
4245;DHT22;2136;48.502;9.194;2022-09-03T00:43:27;20.50;55.50
4245;DHT22;2136;48.502;9.194;2022-09-03T00:46:05;20.50;54.90
4245;DHT22;2136;48.502;9.194;2022-09-03T00:48:42;20.50;55.40
4245;DHT22;2136;48.502;9.194;2022-09-03T00:51:16;20.50;56.00
4245;DHT22;2136;48.502;9.194;2022-09-03T00:53:54;20.40;55.80
4245;DHT22;2136;48.502;9.194;2022-09-03T00:56:31;20.50;55.60
4245;DHT22;2136;48.502;9.194;2022-09-03T00:59:28;20.40;55.50
4245;DHT22;2136;48.502;9.194;2022-09-03T01:02:05;20.40;56.10
4245;DHT22;2136;48.502;9.194;2022-09-03T01:04:45;20.50;55.70
4245;DHT22;2136;48.502;9.194;2022-09-03T01:07:21;20.40;55.40
4245;DHT22;2136;48.502;9.194;2022-09-03T01:09:55;20.40;56.00
4245;DHT22;2136;48.502;9.194;2022-09-03T01:12:35;20.40;55.90
4245;DHT22;2136;48.502;9.194;2022-09-03T01:15:09;20.50;55.80
4245;DHT22;2136;48.502;9.194;2022-09-03T01:17:45;20.40;55.60
4245;DHT22;2136;48.502;9.194;2022-09-03T01:20:30;20.40;55.90
4245;DHT22;2136;48.502;9.194;2022-09-03T01:23:42;20.40;56.10
4245;DHT22;2136;48.502;9.194;2022-09-03T01:26:39;20.40;56.20
4245;DHT22;2136;48.502;9.194;2022-09-03T01:29:19;20.40;56.10
4245;DHT22;2136;48.502;9.194;2022-09-03T01:31:56;20.40;56.60
4245;DHT22;2136;48.502;9.194;2022-09-03T01:34:35;20.40;56.90
4245;DHT22;2136;48.502;9.194;2022-09-03T01:37:13;20.30;56.50
4245;DHT22;2136;48.502;9.194;2022-09-03T01:39:49;20.30;57.10
4245;DHT22;2136;48.502;9.194;2022-09-03T01:42:22;20.30;57.80
4245;DHT22;2136;48.502;9.194;2022-09-03T01:45:06;20.30;57.00
4245;DHT22;2136;48.502;9.194;2022-09-03T01:47:46;20.20;56.80
4245;DHT22;2136;48.502;9.194;2022-09-03T01:50:27;20.20;56.40
4245;DHT22;2136;48.502;9.194;2022-09-03T01:53:04;20.20;56.40
4245;DHT22;2136;48.502;9.194;2022-09-03T01:55:43;20.20;56.40
4245;DHT22;2136;48.502;9.194;2022-09-03T01:58:16;20.20;56.60
4245;DHT22;2136;48.502;9.194;2022-09-03T02:00:50;20.20;56.50
4245;DHT22;2136;48.502;9.194;2022-09-03T02:03:22;20.20;57.30
4245;DHT22;2136;48.502;9.194;2022-09-03T02:05:49;20.20;57.30
4245;DHT22;2136;48.502;9.194;2022-09-03T02:08:18;20.20;57.70
4245;DHT22;2136;48.502;9.194;2022-09-03T02:10:48;20.10;58.20
4245;DHT22;2136;48.502;9.194;2022-09-03T02:13:19;20.10;58.60
4245;DHT22;2136;48.502;9.194;2022-09-03T02:15:51;20.10;58.80
4245;DHT22;2136;48.502;9.194;2022-09-03T02:18:20;20.00;59.50
4245;DHT22;2136;48.502;9.194;2022-09-03T02:20:51;19.90;60.10
4245;DHT22;2136;48.502;9.194;2022-09-03T02:23:19;19.90;61.30
4245;DHT22;2136;48.502;9.194;2022-09-03T02:25:50;19.80;61.80
4245;DHT22;2136;48.502;9.194;2022-09-03T02:28:18;19.80;62.60
4245;DHT22;2136;48.502;9.194;2022-09-03T02:30:45;19.70;63.20
4245;DHT22;2136;48.502;9.194;2022-09-03T02:33:14;19.60;64.40
4245;DHT22;2136;48.502;9.194;2022-09-03T02:35:42;19.60;64.40
4245;DHT22;2136;48.502;9.194;2022-09-03T02:38:10;19.50;64.80
4245;DHT22;2136;48.502;9.194;2022-09-03T02:40:37;19.50;66.00
4245;DHT22;2136;48.502;9.194;2022-09-03T02:43:08;19.40;67.00
4245;DHT22;2136;48.502;9.194;2022-09-03T02:45:40;19.40;67.70
4245;DHT22;2136;48.502;9.194;2022-09-03T02:48:10;19.30;67.40
4245;DHT22;2136;48.502;9.194;2022-09-03T02:50:41;19.30;67.10
4245;DHT22;2136;48.502;9.194;2022-09-03T02:53:08;19.20;67.80
4245;DHT22;2136;48.502;9.194;2022-09-03T02:55:35;19.20;68.20
4245;DHT22;2136;48.502;9.194;2022-09-03T02:58:02;19.20;67.90
4245;DHT22;2136;48.502;9.194;2022-09-03T03:00:31;19.10;68.30
4245;DHT22;2136;48.502;9.194;2022-09-03T03:02:58;19.10;68.70
4245;DHT22;2136;48.502;9.194;2022-09-03T03:05:30;19.00;69.10
4245;DHT22;2136;48.502;9.194;2022-09-03T03:08:03;19.00;70.00
4245;DHT22;2136;48.502;9.194;2022-09-03T03:10:29;19.00;69.70
4245;DHT22;2136;48.502;9.194;2022-09-03T03:12:56;19.00;69.70
4245;DHT22;2136;48.502;9.194;2022-09-03T03:15:23;18.90;69.80
4245;DHT22;2136;48.502;9.194;2022-09-03T03:17:50;19.00;70.10
4245;DHT22;2136;48.502;9.194;2022-09-03T03:20:17;18.90;70.10
4245;DHT22;2136;48.502;9.194;2022-09-03T03:22:43;18.90;69.10
4245;DHT22;2136;48.502;9.194;2022-09-03T03:25:12;18.90;69.50
4245;DHT22;2136;48.502;9.194;2022-09-03T03:27:38;18.90;69.20
4245;DHT22;2136;48.502;9.194;2022-09-03T03:30:09;18.90;69.30
4245;DHT22;2136;48.502;9.194;2022-09-03T03:32:36;19.00;70.30
4245;DHT22;2136;48.502;9.194;2022-09-03T03:35:05;19.00;70.60
4245;DHT22;2136;48.502;9.194;2022-09-03T03:37:32;19.00;69.90
4245;DHT22;2136;48.502;9.194;2022-09-03T03:40:00;19.00;69.70
4245;DHT22;2136;48.502;9.194;2022-09-03T03:42:28;19.00;69.70
4245;DHT22;2136;48.502;9.194;2022-09-03T03:44:55;19.00;70.60
4245;DHT22;2136;48.502;9.194;2022-09-03T03:47:21;19.00;71.60
4245;DHT22;2136;48.502;9.194;2022-09-03T03:49:48;19.00;72.20
4245;DHT22;2136;48.502;9.194;2022-09-03T03:52:15;19.00;72.60
4245;DHT22;2136;48.502;9.194;2022-09-03T03:54:42;19.10;73.40
4245;DHT22;2136;48.502;9.194;2022-09-03T03:57:09;19.10;73.30
4245;DHT22;2136;48.502;9.194;2022-09-03T03:59:37;19.10;72.80
4245;DHT22;2136;48.502;9.194;2022-09-03T04:02:04;19.10;71.50
4245;DHT22;2136;48.502;9.194;2022-09-03T04:04:31;19.10;70.00
4245;DHT22;2136;48.502;9.194;2022-09-03T04:06:58;19.20;70.80
4245;DHT22;2136;48.502;9.194;2022-09-03T04:09:25;19.20;70.50
4245;DHT22;2136;48.502;9.194;2022-09-03T04:11:51;19.20;70.60
4245;DHT22;2136;48.502;9.194;2022-09-03T04:14:18;19.20;71.20
4245;DHT22;2136;48.502;9.194;2022-09-03T04:16:48;19.20;72.10
4245;DHT22;2136;48.502;9.194;2022-09-03T04:19:16;19.20;72.30
4245;DHT22;2136;48.502;9.194;2022-09-03T04:21:44;19.30;73.00
4245;DHT22;2136;48.502;9.194;2022-09-03T04:24:11;19.20;72.40
4245;DHT22;2136;48.502;9.194;2022-09-03T04:26:38;19.30;72.50
4245;DHT22;2136;48.502;9.194;2022-09-03T04:29:06;19.20;72.80
4245;DHT22;2136;48.502;9.194;2022-09-03T04:31:35;19.20;73.20
4245;DHT22;2136;48.502;9.194;2022-09-03T04:34:04;19.20;73.60
4245;DHT22;2136;48.502;9.194;2022-09-03T04:36:31;19.10;74.00
4245;DHT22;2136;48.502;9.194;2022-09-03T04:38:59;19.10;74.50
4245;DHT22;2136;48.502;9.194;2022-09-03T04:41:28;19.00;74.70
4245;DHT22;2136;48.502;9.194;2022-09-03T04:43:57;19.00;74.90
4245;DHT22;2136;48.502;9.194;2022-09-03T04:46:26;19.00;75.30
4245;DHT22;2136;48.502;9.194;2022-09-03T04:48:57;18.90;75.60
4245;DHT22;2136;48.502;9.194;2022-09-03T04:51:26;18.90;76.40
4245;DHT22;2136;48.502;9.194;2022-09-03T04:53:56;18.90;76.90
4245;DHT22;2136;48.502;9.194;2022-09-03T04:56:25;18.90;76.90
4245;DHT22;2136;48.502;9.194;2022-09-03T04:58:54;18.80;77.20
4245;DHT22;2136;48.502;9.194;2022-09-03T05:01:23;18.80;77.80
4245;DHT22;2136;48.502;9.194;2022-09-03T05:03:50;18.80;78.00
4245;DHT22;2136;48.502;9.194;2022-09-03T05:06:18;18.70;78.10
4245;DHT22;2136;48.502;9.194;2022-09-03T05:08:49;18.70;78.40
4245;DHT22;2136;48.502;9.194;2022-09-03T05:11:16;18.70;79.00
4245;DHT22;2136;48.502;9.194;2022-09-03T05:13:46;18.70;79.60
4245;DHT22;2136;48.502;9.194;2022-09-03T05:16:13;18.70;80.00
4245;DHT22;2136;48.502;9.194;2022-09-03T05:18:40;18.60;79.60
4245;DHT22;2136;48.502;9.194;2022-09-03T05:21:09;18.60;79.60
4245;DHT22;2136;48.502;9.194;2022-09-03T05:23:37;18.70;79.70
4245;DHT22;2136;48.502;9.194;2022-09-03T05:26:07;18.70;79.40
4245;DHT22;2136;48.502;9.194;2022-09-03T05:28:35;18.70;79.80
4245;DHT22;2136;48.502;9.194;2022-09-03T05:31:04;18.70;80.10
4245;DHT22;2136;48.502;9.194;2022-09-03T05:33:32;18.80;81.20
4245;DHT22;2136;48.502;9.194;2022-09-03T05:36:00;18.80;80.30
4245;DHT22;2136;48.502;9.194;2022-09-03T05:38:27;18.80;79.90
4245;DHT22;2136;48.502;9.194;2022-09-03T05:40:57;18.90;80.60
4245;DHT22;2136;48.502;9.194;2022-09-03T05:43:26;18.90;81.00
4245;DHT22;2136;48.502;9.194;2022-09-03T05:45:56;19.00;80.60
4245;DHT22;2136;48.502;9.194;2022-09-03T05:48:25;19.00;80.90
4245;DHT22;2136;48.502;9.194;2022-09-03T05:50:58;19.00;78.50
4245;DHT22;2136;48.502;9.194;2022-09-03T05:53:26;19.10;77.20
4245;DHT22;2136;48.502;9.194;2022-09-03T05:55:57;19.10;77.00
4245;DHT22;2136;48.502;9.194;2022-09-03T05:58:25;19.10;76.90
4245;DHT22;2136;48.502;9.194;2022-09-03T06:00:55;19.20;77.70
4245;DHT22;2136;48.502;9.194;2022-09-03T06:03:22;19.20;79.20
4245;DHT22;2136;48.502;9.194;2022-09-03T06:05:51;19.30;80.30
4245;DHT22;2136;48.502;9.194;2022-09-03T06:08:19;19.30;79.70
4245;DHT22;2136;48.502;9.194;2022-09-03T06:10:46;19.40;79.40
4245;DHT22;2136;48.502;9.194;2022-09-03T06:13:13;19.40;79.10
4245;DHT22;2136;48.502;9.194;2022-09-03T06:15:41;19.50;78.30
4245;DHT22;2136;48.502;9.194;2022-09-03T06:18:08;19.50;78.10
4245;DHT22;2136;48.502;9.194;2022-09-03T06:20:35;19.50;78.90
4245;DHT22;2136;48.502;9.194;2022-09-03T06:23:02;19.60;79.40
4245;DHT22;2136;48.502;9.194;2022-09-03T06:25:28;19.70;79.70
4245;DHT22;2136;48.502;9.194;2022-09-03T06:27:56;19.70;79.10
4245;DHT22;2136;48.502;9.194;2022-09-03T06:30:23;19.80;79.10
4245;DHT22;2136;48.502;9.194;2022-09-03T06:32:52;19.90;79.50
4245;DHT22;2136;48.502;9.194;2022-09-03T06:35:19;20.00;79.90
4245;DHT22;2136;48.502;9.194;2022-09-03T06:37:46;20.10;80.10
4245;DHT22;2136;48.502;9.194;2022-09-03T06:40:13;20.20;81.20
4245;DHT22;2136;48.502;9.194;2022-09-03T06:42:55;20.20;81.50
4245;DHT22;2136;48.502;9.194;2022-09-03T06:45:23;20.30;80.90
4245;DHT22;2136;48.502;9.194;2022-09-03T06:47:53;20.40;80.00
4245;DHT22;2136;48.502;9.194;2022-09-03T06:50:20;20.50;80.00
4245;DHT22;2136;48.502;9.194;2022-09-03T06:52:50;20.60;79.50
4245;DHT22;2136;48.502;9.194;2022-09-03T06:55:17;20.60;77.80
4245;DHT22;2136;48.502;9.194;2022-09-03T06:57:45;20.60;76.10
4245;DHT22;2136;48.502;9.194;2022-09-03T07:00:13;20.70;75.30
4245;DHT22;2136;48.502;9.194;2022-09-03T07:02:41;20.70;75.00
4245;DHT22;2136;48.502;9.194;2022-09-03T07:05:09;20.70;74.80
4245;DHT22;2136;48.502;9.194;2022-09-03T07:07:36;20.80;75.10
4245;DHT22;2136;48.502;9.194;2022-09-03T07:10:03;20.80;75.80
4245;DHT22;2136;48.502;9.194;2022-09-03T07:12:30;20.80;76.80
4245;DHT22;2136;48.502;9.194;2022-09-03T07:15:02;20.80;76.50
4245;DHT22;2136;48.502;9.194;2022-09-03T07:17:29;20.80;77.00
4245;DHT22;2136;48.502;9.194;2022-09-03T07:19:56;20.90;77.90
4245;DHT22;2136;48.502;9.194;2022-09-03T07:22:24;20.90;77.70
4245;DHT22;2136;48.502;9.194;2022-09-03T07:24:51;20.90;76.60
4245;DHT22;2136;48.502;9.194;2022-09-03T07:27:17;20.90;76.50
4245;DHT22;2136;48.502;9.194;2022-09-03T07:29:44;21.00;76.40
4245;DHT22;2136;48.502;9.194;2022-09-03T07:32:11;21.00;76.00
4245;DHT22;2136;48.502;9.194;2022-09-03T07:34:38;21.00;76.00
4245;DHT22;2136;48.502;9.194;2022-09-03T07:37:05;21.00;75.90
4245;DHT22;2136;48.502;9.194;2022-09-03T07:39:33;21.00;75.90
4245;DHT22;2136;48.502;9.194;2022-09-03T07:42:00;21.00;76.10
4245;DHT22;2136;48.502;9.194;2022-09-03T07:44:26;21.10;76.30
4245;DHT22;2136;48.502;9.194;2022-09-03T07:46:54;21.00;77.00
4245;DHT22;2136;48.502;9.194;2022-09-03T07:49:21;21.00;77.30
4245;DHT22;2136;48.502;9.194;2022-09-03T07:51:48;21.00;77.20
4245;DHT22;2136;48.502;9.194;2022-09-03T07:54:17;21.10;77.60
4245;DHT22;2136;48.502;9.194;2022-09-03T07:56:47;21.10;77.80
4245;DHT22;2136;48.502;9.194;2022-09-03T07:59:14;21.10;78.20
4245;DHT22;2136;48.502;9.194;2022-09-03T08:01:41;21.20;78.20
4245;DHT22;2136;48.502;9.194;2022-09-03T08:04:08;21.30;78.40
4245;DHT22;2136;48.502;9.194;2022-09-03T08:06:39;21.40;78.20
4245;DHT22;2136;48.502;9.194;2022-09-03T08:09:22;21.40;77.80
4245;DHT22;2136;48.502;9.194;2022-09-03T08:11:51;21.50;77.30
4245;DHT22;2136;48.502;9.194;2022-09-03T08:14:17;21.60;77.30
4245;DHT22;2136;48.502;9.194;2022-09-03T08:16:46;21.70;77.40
4245;DHT22;2136;48.502;9.194;2022-09-03T08:19:13;21.80;77.80
4245;DHT22;2136;48.502;9.194;2022-09-03T08:21:41;21.90;78.70
4245;DHT22;2136;48.502;9.194;2022-09-03T08:24:09;21.90;77.50
4245;DHT22;2136;48.502;9.194;2022-09-03T08:26:39;21.90;79.20
4245;DHT22;2136;48.502;9.194;2022-09-03T08:29:08;22.00;80.70
4245;DHT22;2136;48.502;9.194;2022-09-03T08:31:35;22.00;79.20
4245;DHT22;2136;48.502;9.194;2022-09-03T08:34:05;22.00;77.40
4245;DHT22;2136;48.502;9.194;2022-09-03T08:36:36;22.00;77.50
4245;DHT22;2136;48.502;9.194;2022-09-03T08:39:05;22.10;78.10
4245;DHT22;2136;48.502;9.194;2022-09-03T08:41:42;22.30;77.90
4245;DHT22;2136;48.502;9.194;2022-09-03T08:44:19;22.60;77.90
4245;DHT22;2136;48.502;9.194;2022-09-03T08:46:50;23.00;74.80
4245;DHT22;2136;48.502;9.194;2022-09-03T08:49:25;23.30;72.90
4245;DHT22;2136;48.502;9.194;2022-09-03T08:51:55;23.50;70.70
4245;DHT22;2136;48.502;9.194;2022-09-03T08:54:25;23.60;69.40
4245;DHT22;2136;48.502;9.194;2022-09-03T08:56:55;23.70;68.80
4245;DHT22;2136;48.502;9.194;2022-09-03T08:59:28;23.80;68.20
4245;DHT22;2136;48.502;9.194;2022-09-03T09:02:02;23.90;67.70
4245;DHT22;2136;48.502;9.194;2022-09-03T09:04:39;24.30;66.70
4245;DHT22;2136;48.502;9.194;2022-09-03T09:07:12;24.90;63.80
4245;DHT22;2136;48.502;9.194;2022-09-03T09:09:46;25.40;62.00
4245;DHT22;2136;48.502;9.194;2022-09-03T09:12:26;26.00;60.00
4245;DHT22;2136;48.502;9.194;2022-09-03T09:15:05;26.30;57.60
4245;DHT22;2136;48.502;9.194;2022-09-03T09:17:53;26.70;56.20
4245;DHT22;2136;48.502;9.194;2022-09-03T09:20:30;27.50;55.50
4245;DHT22;2136;48.502;9.194;2022-09-03T09:23:02;28.40;53.60
4245;DHT22;2136;48.502;9.194;2022-09-03T09:25:31;28.30;52.30
4245;DHT22;2136;48.502;9.194;2022-09-03T09:28:12;28.00;52.70
4245;DHT22;2136;48.502;9.194;2022-09-03T09:30:44;27.70;53.30
4245;DHT22;2136;48.502;9.194;2022-09-03T09:33:12;27.60;53.70
4245;DHT22;2136;48.502;9.194;2022-09-03T09:35:39;27.40;53.50
4245;DHT22;2136;48.502;9.194;2022-09-03T09:38:08;27.20;53.20
4245;DHT22;2136;48.502;9.194;2022-09-03T09:40:36;27.50;53.50
4245;DHT22;2136;48.502;9.194;2022-09-03T09:43:05;28.50;52.30
4245;DHT22;2136;48.502;9.194;2022-09-03T09:45:32;29.00;50.90
4245;DHT22;2136;48.502;9.194;2022-09-03T09:48:05;28.70;49.70
4245;DHT22;2136;48.502;9.194;2022-09-03T09:50:35;28.50;49.90
4245;DHT22;2136;48.502;9.194;2022-09-03T09:53:03;28.40;49.90
4245;DHT22;2136;48.502;9.194;2022-09-03T09:55:48;29.10;50.20
4245;DHT22;2136;48.502;9.194;2022-09-03T09:58:14;29.50;49.20
4245;DHT22;2136;48.502;9.194;2022-09-03T10:00:57;29.50;48.60
4245;DHT22;2136;48.502;9.194;2022-09-03T10:03:26;29.60;49.40
4245;DHT22;2136;48.502;9.194;2022-09-03T10:06:01;29.70;48.70
4245;DHT22;2136;48.502;9.194;2022-09-03T10:08:51;29.40;48.90
4245;DHT22;2136;48.502;9.194;2022-09-03T10:11:22;29.00;48.60
4245;DHT22;2136;48.502;9.194;2022-09-03T10:13:53;28.60;49.10
4245;DHT22;2136;48.502;9.194;2022-09-03T10:16:26;28.20;50.00
4245;DHT22;2136;48.502;9.194;2022-09-03T10:19:03;28.10;51.30
4245;DHT22;2136;48.502;9.194;2022-09-03T10:21:38;30.60;51.90
4245;DHT22;2136;48.502;9.194;2022-09-03T10:24:18;32.40;48.00
4245;DHT22;2136;48.502;9.194;2022-09-03T10:26:48;32.40;46.10
4245;DHT22;2136;48.502;9.194;2022-09-03T10:29:20;31.90;44.40
4245;DHT22;2136;48.502;9.194;2022-09-03T10:31:59;31.50;44.80
4245;DHT22;2136;48.502;9.194;2022-09-03T10:34:37;31.00;44.30
4245;DHT22;2136;48.502;9.194;2022-09-03T10:37:15;30.60;44.70
4245;DHT22;2136;48.502;9.194;2022-09-03T10:39:55;30.40;45.90
4245;DHT22;2136;48.502;9.194;2022-09-03T10:42:34;30.30;46.90
4245;DHT22;2136;48.502;9.194;2022-09-03T10:45:12;30.10;46.80
4245;DHT22;2136;48.502;9.194;2022-09-03T10:47:58;29.70;46.90
4245;DHT22;2136;48.502;9.194;2022-09-03T10:50:33;29.40;47.40
4245;DHT22;2136;48.502;9.194;2022-09-03T10:53:22;29.00;48.60
4245;DHT22;2136;48.502;9.194;2022-09-03T10:55:57;28.80;49.30
4245;DHT22;2136;48.502;9.194;2022-09-03T10:58:38;28.60;50.20
4245;DHT22;2136;48.502;9.194;2022-09-03T11:01:15;28.40;50.30
4245;DHT22;2136;48.502;9.194;2022-09-03T11:03:48;28.10;50.40
4245;DHT22;2136;48.502;9.194;2022-09-03T11:06:23;27.80;50.30
4245;DHT22;2136;48.502;9.194;2022-09-03T11:08:55;27.50;50.60
4245;DHT22;2136;48.502;9.194;2022-09-03T11:11:30;27.20;51.40
4245;DHT22;2136;48.502;9.194;2022-09-03T11:14:02;26.90;51.90
4245;DHT22;2136;48.502;9.194;2022-09-03T11:16:31;26.70;52.50
4245;DHT22;2136;48.502;9.194;2022-09-03T11:19:03;26.40;52.30
4245;DHT22;2136;48.502;9.194;2022-09-03T11:21:33;26.10;52.70
4245;DHT22;2136;48.502;9.194;2022-09-03T11:24:06;25.80;54.40
4245;DHT22;2136;48.502;9.194;2022-09-03T11:26:36;25.50;55.10
4245;DHT22;2136;48.502;9.194;2022-09-03T11:29:09;25.30;57.20
4245;DHT22;2136;48.502;9.194;2022-09-03T11:31:47;25.00;59.20
4245;DHT22;2136;48.502;9.194;2022-09-03T11:34:27;24.80;60.90
4245;DHT22;2136;48.502;9.194;2022-09-03T11:37:15;24.50;64.80
4245;DHT22;2136;48.502;9.194;2022-09-03T11:39:43;24.20;65.80
4245;DHT22;2136;48.502;9.194;2022-09-03T11:42:11;24.00;66.40
4245;DHT22;2136;48.502;9.194;2022-09-03T11:44:49;23.80;68.30
4245;DHT22;2136;48.502;9.194;2022-09-03T11:47:22;23.50;70.00
4245;DHT22;2136;48.502;9.194;2022-09-03T11:49:50;23.00;69.60
4245;DHT22;2136;48.502;9.194;2022-09-03T11:52:29;22.60;72.40
4245;DHT22;2136;48.502;9.194;2022-09-03T11:54:57;22.10;75.30
4245;DHT22;2136;48.502;9.194;2022-09-03T11:57:27;21.60;78.80
4245;DHT22;2136;48.502;9.194;2022-09-03T11:59:54;21.10;83.30
4245;DHT22;2136;48.502;9.194;2022-09-03T12:02:36;20.70;89.50
4245;DHT22;2136;48.502;9.194;2022-09-03T12:05:22;20.40;94.20
4245;DHT22;2136;48.502;9.194;2022-09-03T12:08:09;20.10;97.40
4245;DHT22;2136;48.502;9.194;2022-09-03T12:10:48;19.90;97.90
4245;DHT22;2136;48.502;9.194;2022-09-03T12:13:28;19.70;99.10
4245;DHT22;2136;48.502;9.194;2022-09-03T12:16:37;19.60;99.90
4245;DHT22;2136;48.502;9.194;2022-09-03T12:19:10;19.50;99.40
4245;DHT22;2136;48.502;9.194;2022-09-03T12:21:41;19.40;99.90
4245;DHT22;2136;48.502;9.194;2022-09-03T12:24:11;19.30;99.90
4245;DHT22;2136;48.502;9.194;2022-09-03T12:26:40;19.30;99.90
4245;DHT22;2136;48.502;9.194;2022-09-03T12:29:20;19.30;99.90
4245;DHT22;2136;48.502;9.194;2022-09-03T12:31:48;19.20;99.90
4245;DHT22;2136;48.502;9.194;2022-09-03T12:34:18;19.30;99.90
4245;DHT22;2136;48.502;9.194;2022-09-03T12:36:47;19.40;99.90
4245;DHT22;2136;48.502;9.194;2022-09-03T12:39:16;19.50;99.90
4245;DHT22;2136;48.502;9.194;2022-09-03T12:41:59;19.60;99.90
4245;DHT22;2136;48.502;9.194;2022-09-03T12:44:29;19.80;99.90
4245;DHT22;2136;48.502;9.194;2022-09-03T12:47:00;20.00;99.90
4245;DHT22;2136;48.502;9.194;2022-09-03T12:49:34;20.20;99.90
4245;DHT22;2136;48.502;9.194;2022-09-03T12:52:05;20.40;99.90
4245;DHT22;2136;48.502;9.194;2022-09-03T12:54:41;20.60;99.90
4245;DHT22;2136;48.502;9.194;2022-09-03T12:57:10;20.70;99.90
4245;DHT22;2136;48.502;9.194;2022-09-03T12:59:38;20.80;99.90
4245;DHT22;2136;48.502;9.194;2022-09-03T13:02:13;20.90;99.80
4245;DHT22;2136;48.502;9.194;2022-09-03T13:04:41;20.90;98.40
4245;DHT22;2136;48.502;9.194;2022-09-03T13:07:13;20.90;98.30
4245;DHT22;2136;48.502;9.194;2022-09-03T13:09:42;20.90;98.50
4245;DHT22;2136;48.502;9.194;2022-09-03T13:12:20;20.90;98.30
4245;DHT22;2136;48.502;9.194;2022-09-03T13:15:05;21.00;98.10
4245;DHT22;2136;48.502;9.194;2022-09-03T13:17:46;21.00;97.30
4245;DHT22;2136;48.502;9.194;2022-09-03T13:20:27;21.00;96.90
4245;DHT22;2136;48.502;9.194;2022-09-03T13:23:07;21.00;96.30
4245;DHT22;2136;48.502;9.194;2022-09-03T13:25:44;21.00;95.60
4245;DHT22;2136;48.502;9.194;2022-09-03T13:28:27;21.10;96.90
4245;DHT22;2136;48.502;9.194;2022-09-03T13:31:05;21.10;97.80
4245;DHT22;2136;48.502;9.194;2022-09-03T13:33:37;21.20;97.80
4245;DHT22;2136;48.502;9.194;2022-09-03T13:36:09;21.40;98.50
4245;DHT22;2136;48.502;9.194;2022-09-03T13:38:45;21.50;98.40
4245;DHT22;2136;48.502;9.194;2022-09-03T13:41:17;21.70;98.60
4245;DHT22;2136;48.502;9.194;2022-09-03T13:43:51;22.00;99.10
4245;DHT22;2136;48.502;9.194;2022-09-03T13:46:25;22.30;99.10
4245;DHT22;2136;48.502;9.194;2022-09-03T13:48:58;22.50;98.10
4245;DHT22;2136;48.502;9.194;2022-09-03T13:51:48;22.60;96.40
4245;DHT22;2136;48.502;9.194;2022-09-03T13:54:19;22.90;95.30
4245;DHT22;2136;48.502;9.194;2022-09-03T13:56:56;23.20;93.80
4245;DHT22;2136;48.502;9.194;2022-09-03T13:59:31;23.60;92.30
4245;DHT22;2136;48.502;9.194;2022-09-03T14:02:10;24.20;85.20
4245;DHT22;2136;48.502;9.194;2022-09-03T14:04:57;24.80;79.00
4245;DHT22;2136;48.502;9.194;2022-09-03T14:07:39;24.80;79.30
4245;DHT22;2136;48.502;9.194;2022-09-03T14:10:18;24.70;79.20
4245;DHT22;2136;48.502;9.194;2022-09-03T14:12:53;24.40;77.50
4245;DHT22;2136;48.502;9.194;2022-09-03T14:15:25;24.20;78.30
4245;DHT22;2136;48.502;9.194;2022-09-03T14:18:01;24.10;80.30
4245;DHT22;2136;48.502;9.194;2022-09-03T14:20:30;23.90;81.00
4245;DHT22;2136;48.502;9.194;2022-09-03T14:23:03;23.70;80.90
4245;DHT22;2136;48.502;9.194;2022-09-03T14:25:31;23.60;81.60
4245;DHT22;2136;48.502;9.194;2022-09-03T14:28:14;23.60;82.60
4245;DHT22;2136;48.502;9.194;2022-09-03T14:30:50;23.60;83.50
4245;DHT22;2136;48.502;9.194;2022-09-03T14:33:24;23.60;82.80
4245;DHT22;2136;48.502;9.194;2022-09-03T14:36:05;23.60;84.00
4245;DHT22;2136;48.502;9.194;2022-09-03T14:38:45;23.80;84.70
4245;DHT22;2136;48.502;9.194;2022-09-03T14:41:40;24.00;84.40
4245;DHT22;2136;48.502;9.194;2022-09-03T14:44:38;24.30;82.80
4245;DHT22;2136;48.502;9.194;2022-09-03T14:47:19;24.40;81.30
4245;DHT22;2136;48.502;9.194;2022-09-03T14:53:09;24.20;80.60
4245;DHT22;2136;48.502;9.194;2022-09-03T14:56:10;24.20;81.80
4245;DHT22;2136;48.502;9.194;2022-09-03T14:59:08;24.20;82.30
4245;DHT22;2136;48.502;9.194;2022-09-03T15:01:40;24.40;82.50
4245;DHT22;2136;48.502;9.194;2022-09-03T15:04:44;24.40;81.40
4245;DHT22;2136;48.502;9.194;2022-09-03T15:07:27;24.30;80.20
4245;DHT22;2136;48.502;9.194;2022-09-03T15:10:02;24.10;80.70
4245;DHT22;2136;48.502;9.194;2022-09-03T15:12:34;24.00;81.00
4245;DHT22;2136;48.502;9.194;2022-09-03T15:15:06;23.90;79.30
4245;DHT22;2136;48.502;9.194;2022-09-03T15:17:46;23.70;76.10
4245;DHT22;2136;48.502;9.194;2022-09-03T15:20:21;23.60;74.40
4245;DHT22;2136;48.502;9.194;2022-09-03T15:26:09;23.50;77.50
4245;DHT22;2136;48.502;9.194;2022-09-03T15:28:48;23.50;77.40
4245;DHT22;2136;48.502;9.194;2022-09-03T15:31:19;23.50;76.80
4245;DHT22;2136;48.502;9.194;2022-09-03T15:33:56;23.50;77.60
4245;DHT22;2136;48.502;9.194;2022-09-03T15:36:27;23.50;76.80
4245;DHT22;2136;48.502;9.194;2022-09-03T15:39:04;23.40;75.30
4245;DHT22;2136;48.502;9.194;2022-09-03T15:41:40;23.40;73.80
4245;DHT22;2136;48.502;9.194;2022-09-03T15:44:11;23.30;74.10
4245;DHT22;2136;48.502;9.194;2022-09-03T15:46:48;23.40;74.70
4245;DHT22;2136;48.502;9.194;2022-09-03T15:49:46;23.40;75.00
4245;DHT22;2136;48.502;9.194;2022-09-03T15:52:27;23.40;74.00
4245;DHT22;2136;48.502;9.194;2022-09-03T15:55:01;23.30;75.00
4245;DHT22;2136;48.502;9.194;2022-09-03T15:57:36;23.30;75.10
4245;DHT22;2136;48.502;9.194;2022-09-03T16:00:07;23.30;75.40
4245;DHT22;2136;48.502;9.194;2022-09-03T16:02:41;23.20;75.60
4245;DHT22;2136;48.502;9.194;2022-09-03T16:05:17;23.20;75.80
4245;DHT22;2136;48.502;9.194;2022-09-03T16:07:59;23.20;78.50
4245;DHT22;2136;48.502;9.194;2022-09-03T16:10:44;23.20;76.30
4245;DHT22;2136;48.502;9.194;2022-09-03T16:13:30;23.10;77.00
4245;DHT22;2136;48.502;9.194;2022-09-03T16:16:01;23.10;79.80
4245;DHT22;2136;48.502;9.194;2022-09-03T16:18:32;22.90;83.00
4245;DHT22;2136;48.502;9.194;2022-09-03T16:21:06;22.90;85.30
4245;DHT22;2136;48.502;9.194;2022-09-03T16:23:38;22.80;88.10
4245;DHT22;2136;48.502;9.194;2022-09-03T16:26:10;22.70;89.90
4245;DHT22;2136;48.502;9.194;2022-09-03T16:28:44;22.70;91.10
4245;DHT22;2136;48.502;9.194;2022-09-03T16:31:20;22.60;91.90
4245;DHT22;2136;48.502;9.194;2022-09-03T16:33:59;22.50;92.00
4245;DHT22;2136;48.502;9.194;2022-09-03T16:36:38;22.50;92.20
4245;DHT22;2136;48.502;9.194;2022-09-03T16:39:19;22.40;93.10
4245;DHT22;2136;48.502;9.194;2022-09-03T16:41:56;22.30;93.80
4245;DHT22;2136;48.502;9.194;2022-09-03T16:44:32;22.20;95.00